createdAt,value
2023-01-05T00:01:33.465Z,75763.13
2023-01-05T00:04:01.363Z,75746.50
2023-01-05T00:06:29.579Z,75750.66
2023-01-05T00:08:57.525Z,75736.13
2023-01-05T00:11:46.026Z,75746.50
2023-01-05T00:14:32.376Z,75729.88
2023-01-05T00:17:18.601Z,75723.63
2023-01-05T00:20:04.345Z,75727.78
2023-01-05T00:22:34.596Z,75729.88
2023-01-05T00:25:11.142Z,75729.88
2023-01-05T00:27:43.346Z,75690.38
2023-01-05T00:30:13.009Z,75704.94
2023-01-05T00:32:42.582Z,75690.38
2023-01-05T00:35:11.993Z,75709.09
2023-01-05T00:37:41.085Z,75704.94
2023-01-05T00:40:11.446Z,75684.16
2023-01-05T00:42:40.990Z,75704.94
2023-01-05T00:45:11.637Z,75696.63
2023-01-05T00:47:39.814Z,75698.69
2023-01-05T00:50:09.552Z,75700.78
2023-01-05T00:52:37.630Z,75677.91
2023-01-05T00:55:05.991Z,75686.22
2023-01-05T00:57:34.211Z,75655.03
2023-01-05T01:00:03.265Z,75671.66
2023-01-05T01:02:31.578Z,75646.72
2023-01-05T01:04:59.735Z,75646.72
2023-01-05T01:07:27.943Z,75636.34
2023-01-05T01:09:55.621Z,75657.13
2023-01-05T01:12:23.579Z,75659.19
2023-01-05T01:14:51.279Z,75661.28
2023-01-05T01:17:20.778Z,75659.19
2023-01-05T01:19:48.630Z,75667.50
2023-01-05T01:22:16.633Z,75648.81
2023-01-05T01:24:44.358Z,75659.19
2023-01-05T01:27:12.437Z,75659.19
2023-01-05T01:29:40.260Z,75644.66
2023-01-05T01:32:08.224Z,75625.94
2023-01-05T01:34:37.446Z,75638.41
2023-01-05T01:37:05.484Z,75638.41
2023-01-05T01:39:33.347Z,75617.63
2023-01-05T01:42:01.427Z,75611.38
2023-01-05T01:44:52.946Z,75601.00
2023-01-05T01:47:39.666Z,75615.53
2023-01-05T01:50:14.848Z,75617.63
2023-01-05T01:52:45.421Z,75586.44
2023-01-05T01:55:13.588Z,75576.06
2023-01-05T01:57:42.926Z,75584.38
2023-01-05T02:00:14.637Z,75559.41
2023-01-05T02:02:43.032Z,75542.78
2023-01-05T02:05:14.428Z,75526.16
2023-01-05T02:07:46.189Z,75501.22
2023-01-05T02:10:17.518Z,75488.75
2023-01-05T02:12:58.275Z,75472.13
2023-01-05T02:15:34.596Z,75453.41
2023-01-05T02:18:18.182Z,75443.03
2023-01-05T02:20:59.642Z,75459.66
2023-01-05T02:23:54.748Z,75465.88
2023-01-05T02:26:59.935Z,75474.19
2023-01-05T02:29:44.860Z,75476.28
2023-01-05T02:32:20.691Z,75492.91
2023-01-05T02:34:58.457Z,75488.75
2023-01-05T02:37:33.967Z,75501.22
2023-01-05T02:40:07.422Z,75482.50
2023-01-05T02:42:37.353Z,75488.75
2023-01-05T02:45:08.150Z,75484.59
2023-01-05T02:47:42.908Z,75484.59
2023-01-05T02:50:16.851Z,75484.59
2023-01-05T02:52:51.735Z,75478.34
2023-01-05T02:55:25.187Z,75467.97
2023-01-05T02:57:57.970Z,75459.66
2023-01-05T03:00:30.189Z,75447.19
2023-01-05T03:03:03.426Z,75438.84
2023-01-05T03:05:37.156Z,75424.31
2023-01-05T03:08:10.513Z,75426.38
2023-01-05T03:11:05.827Z,75416.00
2023-01-05T03:13:44.874Z,75405.59
2023-01-05T03:16:20.172Z,75397.28
2023-01-05T03:19:09.872Z,75380.66
2023-01-05T03:21:55.648Z,75378.59
2023-01-05T03:24:40.857Z,75366.09
2023-01-05T03:27:26.567Z,75364.03
2023-01-05T03:30:13.208Z,75339.09
2023-01-05T03:33:04.570Z,75351.56
2023-01-05T03:35:38.544Z,75328.69
2023-01-05T03:38:18.309Z,75314.16
2023-01-05T03:40:47.489Z,75297.53
2023-01-05T03:43:15.787Z,75289.19
2023-01-05T03:45:46.197Z,75285.03
2023-01-05T03:48:14.160Z,75280.88
2023-01-05T03:50:43.224Z,75272.56
2023-01-05T03:53:11.196Z,75260.09
2023-01-05T03:55:39.030Z,75255.94
2023-01-05T03:58:06.962Z,75262.19
2023-01-05T04:00:34.820Z,75258.03
2023-01-05T04:03:03.076Z,75251.78
2023-01-05T04:05:31.227Z,75253.88
2023-01-05T04:08:00.558Z,75255.94
2023-01-05T04:10:28.402Z,75243.47
2023-01-05T04:12:56.389Z,75247.63
2023-01-05T04:15:24.215Z,75251.78
2023-01-05T04:17:52.207Z,75243.47
2023-01-05T04:20:20.198Z,75239.31
2023-01-05T04:22:48.168Z,75226.84
2023-01-05T04:25:17.476Z,75216.47
2023-01-05T04:27:45.450Z,75226.84
2023-01-05T04:30:13.694Z,75235.16
2023-01-05T04:32:41.833Z,75237.25
2023-01-05T04:35:11.511Z,75253.88
2023-01-05T04:37:41.071Z,75262.19
2023-01-05T04:40:09.771Z,75264.25
2023-01-05T04:42:39.049Z,75260.09
2023-01-05T04:45:07.388Z,75272.56
2023-01-05T04:47:35.583Z,75276.72
2023-01-05T04:50:03.231Z,75282.97
2023-01-05T04:52:31.430Z,75266.34
2023-01-05T04:54:59.131Z,75270.50
2023-01-05T04:57:27.098Z,75272.56
2023-01-05T04:59:56.145Z,75264.25
2023-01-05T05:02:24.388Z,75260.09
2023-01-05T05:04:52.323Z,75266.34
2023-01-05T05:07:20.487Z,75258.03
2023-01-05T05:09:48.372Z,75260.09
2023-01-05T05:12:20.324Z,75272.56
2023-01-05T05:14:48.544Z,75255.94
2023-01-05T05:17:18.032Z,75264.25
2023-01-05T05:19:45.697Z,75264.25
2023-01-05T05:22:14.152Z,75255.94
2023-01-05T05:24:42.140Z,75264.25
2023-01-05T05:27:10.091Z,75264.25
2023-01-05T05:29:37.802Z,75247.63
2023-01-05T05:32:06.111Z,75255.94
2023-01-05T05:34:35.224Z,75266.34
2023-01-05T05:37:03.270Z,75276.72
2023-01-05T05:39:31.091Z,75266.34
2023-01-05T05:41:59.062Z,75289.19
2023-01-05T05:44:26.746Z,75305.84
2023-01-05T05:46:54.817Z,75297.53
2023-01-05T05:49:22.624Z,75297.53
2023-01-05T05:51:51.904Z,75297.53
2023-01-05T05:54:19.607Z,75301.69
2023-01-05T05:56:47.581Z,75322.47
2023-01-05T05:59:15.377Z,75301.69
2023-01-05T06:01:43.451Z,75305.84
2023-01-05T06:04:11.624Z,75305.84
2023-01-05T06:06:39.840Z,75299.59
2023-01-05T06:09:09.051Z,75280.88
2023-01-05T06:11:37.274Z,75287.13
2023-01-05T06:14:06.341Z,75293.34
2023-01-05T06:16:34.510Z,75297.53
2023-01-05T06:19:02.358Z,75334.94
2023-01-05T06:21:30.582Z,75326.63
2023-01-05T06:23:58.567Z,75355.72
2023-01-05T06:26:27.871Z,75376.50
2023-01-05T06:28:55.633Z,75399.38
2023-01-05T06:31:23.803Z,75418.06
2023-01-05T06:33:51.543Z,75424.31
2023-01-05T06:36:19.719Z,75447.19
2023-01-05T06:38:47.752Z,75463.81
2023-01-05T06:41:15.760Z,75465.88
2023-01-05T06:43:44.945Z,75472.13
2023-01-05T06:46:13.113Z,75467.97
2023-01-05T06:48:40.855Z,75459.66
2023-01-05T06:51:08.978Z,75447.19
2023-01-05T06:53:36.921Z,75443.03
2023-01-05T06:56:05.398Z,75436.78
2023-01-05T06:58:33.359Z,75430.53
2023-01-05T07:01:03.109Z,75407.69
2023-01-05T07:03:30.911Z,75405.59
2023-01-05T07:05:58.913Z,75388.97
2023-01-05T07:08:26.637Z,75388.97
2023-01-05T07:10:54.595Z,75388.97
2023-01-05T07:13:22.418Z,75397.28
2023-01-05T07:15:50.447Z,75399.38
2023-01-05T07:18:19.475Z,75388.97
2023-01-05T07:20:47.427Z,75403.53
2023-01-05T07:23:15.268Z,75413.91
2023-01-05T07:25:43.535Z,75426.38
2023-01-05T07:28:11.240Z,75443.03
2023-01-05T07:30:39.390Z,75440.94
2023-01-05T07:33:07.387Z,75451.34
2023-01-05T07:35:36.694Z,75455.50
2023-01-05T07:38:04.411Z,75459.66
2023-01-05T07:40:32.341Z,75480.44
2023-01-05T07:43:00.041Z,75513.69
2023-01-05T07:45:28.252Z,75536.56
2023-01-05T07:47:55.999Z,75565.66
2023-01-05T07:50:24.274Z,75580.22
2023-01-05T07:52:53.427Z,75601.00
2023-01-05T07:55:21.533Z,75603.06
2023-01-05T07:57:49.232Z,75613.47
2023-01-05T08:00:17.603Z,75634.25
2023-01-05T08:02:46.080Z,75642.56
2023-01-05T08:05:14.205Z,75650.88
2023-01-05T08:07:41.986Z,75655.03
2023-01-05T08:10:29.806Z,75675.81
2023-01-05T08:13:20.267Z,75684.16
2023-01-05T08:15:51.245Z,75692.47
2023-01-05T08:18:19.669Z,75721.56
2023-01-05T08:20:52.211Z,75725.72
2023-01-05T08:23:25.251Z,75742.34
2023-01-05T08:25:56.576Z,75738.19
2023-01-05T08:28:29.922Z,75758.97
2023-01-05T08:31:03.631Z,75754.81
2023-01-05T08:33:31.480Z,75754.81
2023-01-05T08:35:59.547Z,75754.81
2023-01-05T08:38:27.282Z,75756.91
2023-01-05T08:40:59.468Z,75763.13
2023-01-05T08:43:27.574Z,75763.13
2023-01-05T08:45:55.670Z,75767.28
2023-01-05T08:48:23.645Z,75771.44
2023-01-05T08:50:51.626Z,75775.59
2023-01-05T08:53:19.445Z,75773.53
2023-01-05T08:55:47.530Z,75756.91
2023-01-05T08:58:16.572Z,75758.97
2023-01-05T09:00:44.565Z,75750.66
2023-01-05T09:03:12.490Z,75754.81
2023-01-05T09:05:40.538Z,75750.66
2023-01-05T09:08:08.239Z,75754.81
2023-01-05T09:10:36.188Z,75742.34
2023-01-05T09:13:03.882Z,75740.28
2023-01-05T09:15:33.445Z,75750.66
2023-01-05T09:18:01.456Z,75725.72
2023-01-05T09:20:34.575Z,75719.47
2023-01-05T09:23:05.543Z,75725.72
2023-01-05T09:25:33.546Z,75713.25
2023-01-05T09:28:01.492Z,75713.25
2023-01-05T09:30:33.191Z,75711.16
2023-01-05T09:33:05.394Z,75702.84
2023-01-05T09:35:33.544Z,75682.06
2023-01-05T09:38:01.283Z,75675.81
2023-01-05T09:40:30.684Z,75667.50
2023-01-05T09:42:58.607Z,75655.03
2023-01-05T09:45:28.849Z,75630.09
2023-01-05T09:47:58.740Z,75636.34
2023-01-05T09:50:30.735Z,75638.41
2023-01-05T09:53:01.075Z,75630.09
2023-01-05T09:55:32.482Z,75634.25
2023-01-05T09:58:03.939Z,75628.03
2023-01-05T10:00:33.683Z,75630.09
2023-01-05T10:03:10.961Z,75630.09
2023-01-05T10:05:45.008Z,75625.94
2023-01-05T10:08:19.457Z,75609.31
2023-01-05T10:11:11.085Z,75611.38
2023-01-05T10:13:40.430Z,75596.84
2023-01-05T10:16:17.698Z,75596.84
2023-01-05T10:18:46.863Z,75596.84
2023-01-05T10:21:25.787Z,75588.53
2023-01-05T10:24:06.601Z,75571.91
2023-01-05T10:27:14.296Z,75563.56
2023-01-05T10:29:39.793Z,75549.03
2023-01-05T10:32:18.322Z,75530.31
2023-01-05T10:34:56.321Z,75509.53
2023-01-05T10:37:41.953Z,75492.91
2023-01-05T10:40:20.252Z,75505.38
2023-01-05T10:42:58.181Z,75499.13
2023-01-05T10:45:29.704Z,75443.03
2023-01-05T10:47:58.827Z,75443.03
2023-01-05T10:50:32.662Z,75447.19
2023-01-05T10:53:05.827Z,75409.75
2023-01-05T10:55:33.670Z,75357.78
2023-01-05T10:58:01.786Z,75388.97
2023-01-05T11:00:42.652Z,75405.59
2023-01-05T11:03:15.636Z,75411.84
2023-01-05T11:05:46.808Z,75405.59
2023-01-05T11:08:18.866Z,75397.28
2023-01-05T11:10:52.974Z,75413.91
2023-01-05T11:13:30.573Z,75416.00
2023-01-05T11:16:07.594Z,75413.91
2023-01-05T11:18:47.924Z,75426.38
2023-01-05T11:21:18.172Z,75418.06
2023-01-05T11:23:49.175Z,75422.22
2023-01-05T11:26:24.242Z,75430.53
2023-01-05T11:29:13.233Z,75413.91
2023-01-05T11:31:45.500Z,75413.91
2023-01-05T11:34:30.283Z,75401.44
2023-01-05T11:37:05.615Z,75407.69
2023-01-05T11:39:41.879Z,75388.97
2023-01-05T11:42:21.555Z,75384.81
2023-01-05T11:44:56.374Z,75401.44
2023-01-05T11:47:35.319Z,75393.13
2023-01-05T11:50:09.726Z,75393.13
2023-01-05T11:52:39.301Z,75399.38
2023-01-05T11:55:39.787Z,75393.13
2023-01-05T11:58:28.042Z,75393.13
2023-01-05T12:01:26.448Z,75372.34
2023-01-05T12:04:17.881Z,75339.09
2023-01-05T12:07:08.937Z,75312.06
2023-01-05T12:09:39.526Z,75303.75
2023-01-05T12:12:20.308Z,75320.38
2023-01-05T12:15:06.901Z,75324.53
2023-01-05T12:17:43.882Z,75314.16
2023-01-05T12:20:33.134Z,75330.78
2023-01-05T12:23:27.974Z,75339.09
2023-01-05T12:26:04.288Z,75343.25
2023-01-05T12:29:34.452Z,75351.56
2023-01-05T12:34:59.042Z,75355.72
2023-01-05T12:37:37.590Z,75351.56
2023-01-05T12:40:26.633Z,75359.88
2023-01-05T12:43:01.509Z,75355.72
2023-01-05T12:46:05.795Z,75351.56
2023-01-05T12:48:39.498Z,75349.47
2023-01-05T12:51:13.754Z,75351.56
2023-01-05T12:53:48.283Z,75339.09
2023-01-05T12:56:24.011Z,75345.31
2023-01-05T12:59:03.652Z,75347.41
2023-01-05T13:01:37.994Z,75351.56
2023-01-05T13:04:16.535Z,75349.47
2023-01-05T13:06:53.030Z,75349.47
2023-01-05T13:09:23.445Z,75347.41
2023-01-05T13:11:56.549Z,75339.09
2023-01-05T13:14:28.691Z,75351.56
2023-01-05T13:17:01.914Z,75359.88
2023-01-05T13:19:35.695Z,75334.94
2023-01-05T13:22:15.542Z,75349.47
2023-01-05T13:24:51.891Z,75355.72
2023-01-05T13:27:19.964Z,75347.41
2023-01-05T13:29:54.282Z,75353.63
2023-01-05T13:32:38.073Z,75368.19
2023-01-05T13:35:35.839Z,75368.19
2023-01-05T13:38:21.038Z,75368.19
2023-01-05T13:41:03.529Z,75376.50
2023-01-05T13:43:50.837Z,75364.03
2023-01-05T13:46:32.605Z,75357.78
2023-01-05T13:49:17.680Z,75357.78
2023-01-05T13:51:54.508Z,75372.34
2023-01-05T13:54:43.783Z,75384.81
2023-01-05T13:57:25.567Z,75384.81
2023-01-05T14:00:06.552Z,75384.81
2023-01-05T14:02:40.065Z,75393.13
2023-01-05T14:05:17.628Z,75407.69
2023-01-05T14:07:45.501Z,75409.75
2023-01-05T14:10:25.163Z,75459.66
2023-01-05T14:12:55.058Z,75540.72
2023-01-05T14:15:36.335Z,75671.66
2023-01-05T14:18:04.899Z,75700.78
2023-01-05T14:20:41.632Z,75779.75
2023-01-05T14:23:47.286Z,75813.03
2023-01-05T14:26:15.350Z,75842.13
2023-01-05T14:28:49.300Z,75854.59
2023-01-05T14:31:37.826Z,75860.84
2023-01-05T14:34:09.710Z,75862.91
2023-01-05T14:36:40.379Z,75860.84
2023-01-05T14:39:24.081Z,75867.06
2023-01-05T14:42:01.052Z,75875.38
2023-01-05T14:44:34.153Z,75875.38
2023-01-05T14:47:02.977Z,75892.03
2023-01-05T14:49:35.549Z,75896.19
2023-01-05T14:52:07.687Z,75883.72
2023-01-05T14:54:38.005Z,75883.72
2023-01-05T14:57:30.861Z,75875.38
2023-01-05T15:00:05.372Z,75879.56
2023-01-05T15:02:43.823Z,75896.19
2023-01-05T15:05:17.099Z,75889.94
2023-01-05T15:07:54.993Z,75898.25
2023-01-05T15:10:52.741Z,75908.66
2023-01-05T15:14:05.915Z,75912.81
2023-01-05T15:16:50.722Z,75910.72
2023-01-05T15:19:41.917Z,75914.88
2023-01-05T15:22:38.054Z,75908.66
2023-01-05T15:25:43.329Z,75908.66
2023-01-05T15:28:43.085Z,75916.97
2023-01-05T15:31:29.489Z,75912.81
2023-01-05T15:34:06.672Z,75900.34
2023-01-05T15:36:43.016Z,75894.09
2023-01-05T15:39:29.336Z,75892.03
2023-01-05T15:42:01.124Z,75869.16
2023-01-05T15:44:33.994Z,75854.59
2023-01-05T15:47:03.194Z,75850.44
2023-01-05T15:49:33.475Z,75829.66
2023-01-05T15:52:02.377Z,75821.34
2023-01-05T15:54:31.764Z,75804.72
2023-01-05T15:57:02.543Z,75775.59
2023-01-05T15:59:33.057Z,75729.88
2023-01-05T16:02:01.347Z,75721.56
2023-01-05T16:04:29.193Z,75709.09
2023-01-05T16:07:01.136Z,75682.06
2023-01-05T16:09:32.286Z,75692.47
2023-01-05T16:12:07.666Z,75679.97
2023-01-05T16:14:39.218Z,75688.31
2023-01-05T16:17:12.382Z,75692.47
2023-01-05T16:19:43.872Z,75702.84
2023-01-05T16:22:18.446Z,75692.47
2023-01-05T16:24:54.159Z,75704.94
2023-01-05T16:27:24.129Z,75696.63
2023-01-05T16:29:52.030Z,75692.47
2023-01-05T16:32:32.731Z,75688.31
2023-01-05T16:35:23.178Z,75679.97
2023-01-05T16:38:17.831Z,75688.31
2023-01-05T16:41:06.492Z,75686.22
2023-01-05T16:43:38.378Z,75679.97
2023-01-05T16:46:28.994Z,75669.59
2023-01-05T16:49:00.725Z,75650.88
2023-01-05T16:51:40.289Z,75652.97
2023-01-05T16:54:18.987Z,75655.03
2023-01-05T16:56:58.009Z,75655.03
2023-01-05T16:59:41.429Z,75659.19
2023-01-05T17:02:40.705Z,75663.34
2023-01-05T17:05:10.306Z,75661.28
2023-01-05T17:07:39.920Z,75684.16
2023-01-05T17:10:14.864Z,75704.94
2023-01-05T17:12:42.635Z,75729.88
2023-01-05T17:15:20.133Z,75767.28
2023-01-05T17:17:48.370Z,75792.25
2023-01-05T17:20:16.549Z,75840.06
2023-01-05T17:22:44.350Z,75881.63
2023-01-05T17:25:14.666Z,75906.56
2023-01-05T17:27:42.861Z,75931.53
2023-01-05T17:30:19.971Z,75939.84
2023-01-05T17:32:48.000Z,75966.84
2023-01-05T17:35:18.720Z,75962.69
2023-01-05T17:37:47.783Z,75971.03
2023-01-05T17:40:20.600Z,75973.09
2023-01-05T17:42:49.077Z,75973.09
2023-01-05T17:45:20.987Z,75983.50
2023-01-05T17:47:50.263Z,75983.50
2023-01-05T17:50:20.054Z,75989.72
2023-01-05T17:52:48.194Z,75991.81
2023-01-05T17:55:16.361Z,76000.13
2023-01-05T17:57:44.084Z,75995.97
2023-01-05T18:00:15.444Z,76004.28
2023-01-05T18:02:44.991Z,76004.28
2023-01-05T18:05:14.236Z,76004.28
2023-01-05T18:07:42.914Z,76004.28
2023-01-05T18:10:14.628Z,76004.28
2023-01-05T18:12:42.886Z,76012.59
2023-01-05T18:15:11.983Z,76008.44
2023-01-05T18:17:39.966Z,76004.28
2023-01-05T18:20:12.055Z,76002.19
2023-01-05T18:22:40.312Z,75998.03
2023-01-05T18:25:08.848Z,75995.97
2023-01-05T18:27:36.570Z,75993.88
2023-01-05T18:30:06.527Z,75989.72
2023-01-05T18:32:34.310Z,76000.13
2023-01-05T18:35:05.676Z,75995.97
2023-01-05T18:37:39.087Z,75985.56
2023-01-05T18:40:08.803Z,75983.50
2023-01-05T18:42:37.392Z,75981.41
2023-01-05T18:45:18.781Z,75977.25
2023-01-05T18:47:47.781Z,75981.41
2023-01-05T18:50:15.845Z,75987.66
2023-01-05T18:52:44.891Z,75979.34
2023-01-05T18:55:12.862Z,75987.66
2023-01-05T18:57:40.769Z,75987.66
2023-01-05T19:00:09.942Z,75995.97
2023-01-05T19:02:37.948Z,75991.81
2023-01-05T19:05:06.409Z,75995.97
2023-01-05T19:07:34.107Z,76000.13
2023-01-05T19:10:03.464Z,76004.28
2023-01-05T19:12:31.468Z,75995.97
2023-01-05T19:14:59.570Z,76014.69
2023-01-05T19:17:27.293Z,76006.34
2023-01-05T19:19:57.455Z,76012.59
2023-01-05T19:22:26.472Z,76029.22
2023-01-05T19:24:54.736Z,76029.22
2023-01-05T19:27:23.902Z,76029.22
2023-01-05T19:29:52.057Z,76037.53
2023-01-05T19:32:19.975Z,76033.38
2023-01-05T19:34:47.937Z,76033.38
2023-01-05T19:37:15.711Z,76045.84
2023-01-05T19:39:43.884Z,76033.38
2023-01-05T19:42:11.590Z,76054.19
2023-01-05T19:44:40.863Z,76041.69
2023-01-05T19:47:08.822Z,76054.19
2023-01-05T19:49:36.761Z,76066.66
2023-01-05T19:52:04.494Z,76058.34
2023-01-05T19:54:32.582Z,76068.72
2023-01-05T19:57:00.369Z,76074.97
2023-01-05T19:59:33.275Z,76079.13
2023-01-05T20:02:03.023Z,76077.03
2023-01-05T20:04:31.637Z,76079.13
2023-01-05T20:07:01.844Z,76099.91
2023-01-05T20:09:31.077Z,76114.47
2023-01-05T20:12:09.179Z,76116.53
2023-01-05T20:14:41.493Z,76122.78
2023-01-05T20:17:11.745Z,76129.00
2023-01-05T20:19:40.301Z,76137.34
2023-01-05T20:22:13.489Z,76143.56
2023-01-05T20:24:42.082Z,76129.00
2023-01-05T20:27:13.395Z,76149.81
2023-01-05T20:29:42.094Z,76162.28
2023-01-05T20:32:13.971Z,76191.38
2023-01-05T20:34:44.203Z,76212.19
2023-01-05T20:37:12.868Z,76222.56
2023-01-05T20:39:42.269Z,76224.66
2023-01-05T20:42:10.985Z,76245.44
2023-01-05T20:44:40.677Z,76249.59
2023-01-05T20:47:09.235Z,76241.28
2023-01-05T20:49:40.520Z,76249.59
2023-01-05T20:52:10.288Z,76249.59
2023-01-05T20:54:38.797Z,76266.22
2023-01-05T20:57:06.779Z,76291.19
2023-01-05T20:59:38.582Z,76282.88
2023-01-05T21:02:18.373Z,76303.66
2023-01-05T21:04:52.707Z,76328.59
2023-01-05T21:07:21.444Z,76343.16
2023-01-05T21:09:51.006Z,76353.56
2023-01-05T21:12:19.297Z,76374.34
2023-01-05T21:14:47.494Z,76370.19
2023-01-05T21:17:15.240Z,76390.97
2023-01-05T21:19:43.263Z,76399.28
2023-01-05T21:22:12.323Z,76403.44
2023-01-05T21:24:40.951Z,76415.91
2023-01-05T21:27:08.766Z,76432.56
2023-01-05T21:29:37.108Z,76440.88
2023-01-05T21:32:04.879Z,76459.59
2023-01-05T21:34:33.041Z,76459.59
2023-01-05T21:37:00.795Z,76469.97
2023-01-05T21:39:30.118Z,76486.63
2023-01-05T21:42:15.780Z,76488.69
2023-01-05T21:44:43.814Z,76478.28
2023-01-05T21:47:12.810Z,76497.00
2023-01-05T21:49:40.945Z,76503.25
2023-01-05T21:52:26.364Z,76503.25
2023-01-05T21:55:13.596Z,76505.31
2023-01-05T21:57:41.365Z,76515.72
2023-01-05T22:00:10.488Z,76517.81
2023-01-05T22:02:38.347Z,76521.97
2023-01-05T22:05:07.318Z,76528.19
2023-01-05T22:07:35.132Z,76519.88
2023-01-05T22:10:05.478Z,76536.50
2023-01-05T22:12:33.207Z,76544.84
2023-01-05T22:15:01.233Z,76532.34
2023-01-05T22:17:29.033Z,76532.34
2023-01-05T22:19:57.121Z,76536.50
2023-01-05T22:22:24.949Z,76538.59
2023-01-05T22:24:53.053Z,76530.28
2023-01-05T22:27:22.086Z,76534.44
2023-01-05T22:29:50.083Z,76544.84
2023-01-05T22:32:17.798Z,76549.00
2023-01-05T22:34:46.406Z,76544.84
2023-01-05T22:37:16.027Z,76544.84
2023-01-05T22:39:44.023Z,76549.00
2023-01-05T22:42:11.718Z,76549.00
2023-01-05T22:44:41.227Z,76563.53
2023-01-05T22:47:08.938Z,76557.31
2023-01-05T22:49:37.000Z,76557.31
2023-01-05T22:52:05.384Z,76565.63
2023-01-05T22:54:33.739Z,76578.09
2023-01-05T22:57:01.388Z,76569.78
2023-01-05T22:59:29.389Z,76578.09
2023-01-05T23:01:58.512Z,76578.09
2023-01-05T23:04:26.491Z,76573.94
2023-01-05T23:06:54.191Z,76571.84
2023-01-05T23:09:22.300Z,76582.25
2023-01-05T23:11:50.033Z,76578.09
2023-01-05T23:14:18.950Z,76586.41
2023-01-05T23:16:47.211Z,76586.41
2023-01-05T23:19:17.166Z,76594.72
2023-01-05T23:21:44.995Z,76586.41
2023-01-05T23:24:12.971Z,76598.88
2023-01-05T23:26:40.833Z,76605.13
2023-01-05T23:29:08.930Z,76607.22
2023-01-05T23:31:36.620Z,76594.72
2023-01-05T23:34:04.589Z,76603.03
2023-01-05T23:36:33.623Z,76615.53
2023-01-05T23:39:01.605Z,76619.69
2023-01-05T23:41:29.269Z,76628.00
2023-01-05T23:43:57.203Z,76630.06
2023-01-05T23:46:25.086Z,76634.22
2023-01-05T23:48:53.384Z,76634.22
2023-01-05T23:51:21.413Z,76625.91
2023-01-05T23:53:52.385Z,76634.22
2023-01-05T23:56:22.180Z,76632.16
2023-01-05T23:58:55.026Z,76642.56
